sensor_id;sensor_type;location;lat;lon;timestamp;P1;durP1;ratioP1;P2;durP2;ratioP2
24034;SDS011;12242;50.952;4.678;2023-04-16T00:02:29;7.60;;;1.38;;
24034;SDS011;12242;50.952;4.678;2023-04-16T00:04:56;4.72;;;1.70;;
24034;SDS011;12242;50.952;4.678;2023-04-16T00:07:24;9.30;;;1.75;;
24034;SDS011;12242;50.952;4.678;2023-04-16T00:09:51;10.52;;;1.95;;
24034;SDS011;12242;50.952;4.678;2023-04-16T00:12:19;8.23;;;1.75;;
24034;SDS011;12242;50.952;4.678;2023-04-16T00:14:46;3.35;;;1.52;;
24034;SDS011;12242;50.952;4.678;2023-04-16T00:17:14;5.25;;;1.70;;
24034;SDS011;12242;50.952;4.678;2023-04-16T00:19:42;13.82;;;2.08;;
24034;SDS011;12242;50.952;4.678;2023-04-16T00:22:10;5.00;;;1.52;;
24034;SDS011;12242;50.952;4.678;2023-04-16T00:24:37;5.25;;;1.38;;
24034;SDS011;12242;50.952;4.678;2023-04-16T00:27:05;4.68;;;1.40;;
24034;SDS011;12242;50.952;4.678;2023-04-16T00:29:32;5.22;;;1.38;;
24034;SDS011;12242;50.952;4.678;2023-04-16T00:32:00;3.75;;;1.40;;
24034;SDS011;12242;50.952;4.678;2023-04-16T00:34:28;5.03;;;1.33;;
24034;SDS011;12242;50.952;4.678;2023-04-16T00:36:55;8.50;;;1.13;;
24034;SDS011;12242;50.952;4.678;2023-04-16T00:39:23;3.22;;;1.10;;
24034;SDS011;12242;50.952;4.678;2023-04-16T00:41:50;3.35;;;1.00;;
24034;SDS011;12242;50.952;4.678;2023-04-16T00:44:18;12.05;;;1.35;;
24034;SDS011;12242;50.952;4.678;2023-04-16T00:46:45;3.42;;;1.00;;
24034;SDS011;12242;50.952;4.678;2023-04-16T00:49:13;2.70;;;0.90;;
24034;SDS011;12242;50.952;4.678;2023-04-16T00:51:41;3.78;;;1.17;;
24034;SDS011;12242;50.952;4.678;2023-04-16T00:54:08;6.05;;;1.20;;
24034;SDS011;12242;50.952;4.678;2023-04-16T00:56:36;5.25;;;1.20;;
24034;SDS011;12242;50.952;4.678;2023-04-16T00:59:04;3.60;;;1.40;;
24034;SDS011;12242;50.952;4.678;2023-04-16T01:01:32;6.38;;;1.60;;
24034;SDS011;12242;50.952;4.678;2023-04-16T01:04:00;4.43;;;1.70;;
24034;SDS011;12242;50.952;4.678;2023-04-16T01:06:27;7.18;;;1.48;;
24034;SDS011;12242;50.952;4.678;2023-04-16T01:08:55;6.07;;;1.58;;
24034;SDS011;12242;50.952;4.678;2023-04-16T01:11:22;6.03;;;1.85;;
24034;SDS011;12242;50.952;4.678;2023-04-16T01:13:50;5.85;;;1.85;;
24034;SDS011;12242;50.952;4.678;2023-04-16T01:16:18;5.43;;;2.00;;
24034;SDS011;12242;50.952;4.678;2023-04-16T01:18:46;5.97;;;2.25;;
24034;SDS011;12242;50.952;4.678;2023-04-16T01:21:14;7.25;;;2.05;;
24034;SDS011;12242;50.952;4.678;2023-04-16T01:23:41;6.38;;;2.58;;
24034;SDS011;12242;50.952;4.678;2023-04-16T01:26:09;8.70;;;2.40;;
24034;SDS011;12242;50.952;4.678;2023-04-16T01:28:36;9.82;;;2.58;;
24034;SDS011;12242;50.952;4.678;2023-04-16T01:31:04;8.55;;;2.22;;
24034;SDS011;12242;50.952;4.678;2023-04-16T01:33:31;5.35;;;2.15;;
24034;SDS011;12242;50.952;4.678;2023-04-16T01:35:59;4.60;;;2.22;;
24034;SDS011;12242;50.952;4.678;2023-04-16T01:38:26;6.65;;;2.47;;
24034;SDS011;12242;50.952;4.678;2023-04-16T01:40:55;6.32;;;2.85;;
24034;SDS011;12242;50.952;4.678;2023-04-16T01:43:26;6.65;;;2.72;;
24034;SDS011;12242;50.952;4.678;2023-04-16T01:45:57;6.30;;;2.65;;
24034;SDS011;12242;50.952;4.678;2023-04-16T01:48:46;8.07;;;3.40;;
24034;SDS011;12242;50.952;4.678;2023-04-16T01:51:14;6.85;;;2.70;;
24034;SDS011;12242;50.952;4.678;2023-04-16T01:53:41;6.18;;;2.85;;
24034;SDS011;12242;50.952;4.678;2023-04-16T01:56:09;13.70;;;3.55;;
24034;SDS011;12242;50.952;4.678;2023-04-16T01:58:36;5.65;;;2.67;;
24034;SDS011;12242;50.952;4.678;2023-04-16T02:01:04;11.98;;;3.28;;
24034;SDS011;12242;50.952;4.678;2023-04-16T02:03:32;9.27;;;2.97;;
24034;SDS011;12242;50.952;4.678;2023-04-16T02:06:00;9.80;;;3.10;;
24034;SDS011;12242;50.952;4.678;2023-04-16T02:08:28;7.00;;;2.78;;
24034;SDS011;12242;50.952;4.678;2023-04-16T02:10:55;5.63;;;2.72;;
24034;SDS011;12242;50.952;4.678;2023-04-16T02:13:23;8.05;;;2.70;;
24034;SDS011;12242;50.952;4.678;2023-04-16T02:15:51;7.20;;;2.97;;
24034;SDS011;12242;50.952;4.678;2023-04-16T02:18:19;6.35;;;2.90;;
24034;SDS011;12242;50.952;4.678;2023-04-16T02:20:47;7.95;;;3.05;;
24034;SDS011;12242;50.952;4.678;2023-04-16T02:23:15;9.88;;;2.80;;
24034;SDS011;12242;50.952;4.678;2023-04-16T02:25:44;8.13;;;2.97;;
24034;SDS011;12242;50.952;4.678;2023-04-16T02:28:13;7.63;;;3.10;;
24034;SDS011;12242;50.952;4.678;2023-04-16T02:30:42;9.50;;;2.75;;
24034;SDS011;12242;50.952;4.678;2023-04-16T02:33:10;7.35;;;3.15;;
24034;SDS011;12242;50.952;4.678;2023-04-16T02:35:38;10.85;;;3.30;;
24034;SDS011;12242;50.952;4.678;2023-04-16T02:38:06;10.23;;;3.35;;
24034;SDS011;12242;50.952;4.678;2023-04-16T02:40:34;6.13;;;2.72;;
24034;SDS011;12242;50.952;4.678;2023-04-16T02:43:02;5.47;;;2.53;;
24034;SDS011;12242;50.952;4.678;2023-04-16T02:45:30;11.38;;;3.53;;
24034;SDS011;12242;50.952;4.678;2023-04-16T02:47:57;8.75;;;3.03;;
24034;SDS011;12242;50.952;4.678;2023-04-16T02:50:25;7.88;;;3.03;;
24034;SDS011;12242;50.952;4.678;2023-04-16T02:52:53;7.20;;;3.00;;
24034;SDS011;12242;50.952;4.678;2023-04-16T02:55:20;7.22;;;3.10;;
24034;SDS011;12242;50.952;4.678;2023-04-16T02:57:48;8.55;;;3.63;;
24034;SDS011;12242;50.952;4.678;2023-04-16T03:00:16;8.98;;;3.75;;
24034;SDS011;12242;50.952;4.678;2023-04-16T03:02:43;6.93;;;3.58;;
24034;SDS011;12242;50.952;4.678;2023-04-16T03:05:11;6.22;;;3.10;;
24034;SDS011;12242;50.952;4.678;2023-04-16T03:07:38;8.40;;;3.30;;
24034;SDS011;12242;50.952;4.678;2023-04-16T03:10:06;7.30;;;3.58;;
24034;SDS011;12242;50.952;4.678;2023-04-16T03:12:34;11.90;;;3.53;;
24034;SDS011;12242;50.952;4.678;2023-04-16T03:15:02;9.38;;;3.88;;
24034;SDS011;12242;50.952;4.678;2023-04-16T03:17:30;10.77;;;3.80;;
24034;SDS011;12242;50.952;4.678;2023-04-16T03:19:58;11.13;;;4.25;;
24034;SDS011;12242;50.952;4.678;2023-04-16T03:22:25;11.43;;;3.83;;
24034;SDS011;12242;50.952;4.678;2023-04-16T03:24:52;12.70;;;4.57;;
24034;SDS011;12242;50.952;4.678;2023-04-16T03:27:20;12.70;;;4.32;;
24034;SDS011;12242;50.952;4.678;2023-04-16T03:29:47;8.27;;;4.13;;
24034;SDS011;12242;50.952;4.678;2023-04-16T03:32:15;12.57;;;4.65;;
24034;SDS011;12242;50.952;4.678;2023-04-16T03:34:43;12.63;;;4.57;;
24034;SDS011;12242;50.952;4.678;2023-04-16T03:37:10;12.73;;;4.50;;
24034;SDS011;12242;50.952;4.678;2023-04-16T03:39:38;13.77;;;4.88;;
24034;SDS011;12242;50.952;4.678;2023-04-16T03:42:06;11.20;;;4.43;;
24034;SDS011;12242;50.952;4.678;2023-04-16T03:44:33;11.95;;;4.88;;
24034;SDS011;12242;50.952;4.678;2023-04-16T03:47:01;11.85;;;4.97;;
24034;SDS011;12242;50.952;4.678;2023-04-16T03:49:28;12.68;;;4.78;;
24034;SDS011;12242;50.952;4.678;2023-04-16T03:51:56;12.50;;;5.50;;
24034;SDS011;12242;50.952;4.678;2023-04-16T03:54:23;11.05;;;4.80;;
24034;SDS011;12242;50.952;4.678;2023-04-16T03:56:51;12.88;;;5.40;;
24034;SDS011;12242;50.952;4.678;2023-04-16T03:59:18;14.40;;;5.85;;
24034;SDS011;12242;50.952;4.678;2023-04-16T04:01:46;12.25;;;4.93;;
24034;SDS011;12242;50.952;4.678;2023-04-16T04:04:13;12.27;;;5.15;;
24034;SDS011;12242;50.952;4.678;2023-04-16T04:06:41;15.90;;;5.65;;
24034;SDS011;12242;50.952;4.678;2023-04-16T04:09:10;14.80;;;5.53;;
24034;SDS011;12242;50.952;4.678;2023-04-16T04:11:38;16.10;;;5.82;;
24034;SDS011;12242;50.952;4.678;2023-04-16T04:14:06;17.42;;;5.70;;
24034;SDS011;12242;50.952;4.678;2023-04-16T04:16:33;14.55;;;5.28;;
24034;SDS011;12242;50.952;4.678;2023-04-16T04:19:01;19.90;;;6.22;;
24034;SDS011;12242;50.952;4.678;2023-04-16T04:21:29;14.05;;;5.90;;
24034;SDS011;12242;50.952;4.678;2023-04-16T04:23:57;18.77;;;6.63;;
24034;SDS011;12242;50.952;4.678;2023-04-16T04:26:24;16.20;;;5.90;;
24034;SDS011;12242;50.952;4.678;2023-04-16T04:28:52;15.73;;;5.15;;
24034;SDS011;12242;50.952;4.678;2023-04-16T04:31:19;17.42;;;5.97;;
24034;SDS011;12242;50.952;4.678;2023-04-16T04:33:47;13.52;;;5.50;;
24034;SDS011;12242;50.952;4.678;2023-04-16T04:36:15;16.15;;;6.40;;
24034;SDS011;12242;50.952;4.678;2023-04-16T04:38:43;15.13;;;5.88;;
24034;SDS011;12242;50.952;4.678;2023-04-16T04:41:10;16.52;;;5.97;;
24034;SDS011;12242;50.952;4.678;2023-04-16T04:43:38;17.63;;;6.57;;
24034;SDS011;12242;50.952;4.678;2023-04-16T04:46:05;15.07;;;5.97;;
24034;SDS011;12242;50.952;4.678;2023-04-16T04:48:33;15.07;;;5.97;;
24034;SDS011;12242;50.952;4.678;2023-04-16T04:51:01;17.27;;;6.65;;
24034;SDS011;12242;50.952;4.678;2023-04-16T04:53:31;17.95;;;6.72;;
24034;SDS011;12242;50.952;4.678;2023-04-16T04:55:58;19.30;;;6.97;;
24034;SDS011;12242;50.952;4.678;2023-04-16T04:58:38;14.52;;;6.55;;
24034;SDS011;12242;50.952;4.678;2023-04-16T05:01:06;23.77;;;6.50;;
24034;SDS011;12242;50.952;4.678;2023-04-16T05:03:33;21.75;;;7.00;;
24034;SDS011;12242;50.952;4.678;2023-04-16T05:06:01;15.02;;;6.00;;
24034;SDS011;12242;50.952;4.678;2023-04-16T05:08:29;17.98;;;6.28;;
24034;SDS011;12242;50.952;4.678;2023-04-16T05:10:56;14.82;;;6.35;;
24034;SDS011;12242;50.952;4.678;2023-04-16T05:13:24;23.73;;;6.40;;
24034;SDS011;12242;50.952;4.678;2023-04-16T05:15:51;18.40;;;7.28;;
24034;SDS011;12242;50.952;4.678;2023-04-16T05:18:19;19.33;;;7.07;;
24034;SDS011;12242;50.952;4.678;2023-04-16T05:20:47;18.38;;;7.03;;
24034;SDS011;12242;50.952;4.678;2023-04-16T05:23:14;17.25;;;7.28;;
24034;SDS011;12242;50.952;4.678;2023-04-16T05:25:42;21.98;;;6.53;;
24034;SDS011;12242;50.952;4.678;2023-04-16T05:28:09;16.15;;;6.57;;
24034;SDS011;12242;50.952;4.678;2023-04-16T05:30:37;15.45;;;6.78;;
24034;SDS011;12242;50.952;4.678;2023-04-16T05:33:04;16.20;;;6.43;;
24034;SDS011;12242;50.952;4.678;2023-04-16T05:35:32;18.98;;;6.85;;
24034;SDS011;12242;50.952;4.678;2023-04-16T05:38:00;18.05;;;6.38;;
24034;SDS011;12242;50.952;4.678;2023-04-16T05:40:30;14.52;;;6.20;;
24034;SDS011;12242;50.952;4.678;2023-04-16T05:42:58;16.75;;;6.50;;
24034;SDS011;12242;50.952;4.678;2023-04-16T05:45:25;19.48;;;6.68;;
24034;SDS011;12242;50.952;4.678;2023-04-16T05:47:53;16.02;;;6.70;;
24034;SDS011;12242;50.952;4.678;2023-04-16T05:50:21;14.93;;;5.97;;
24034;SDS011;12242;50.952;4.678;2023-04-16T05:52:49;14.85;;;6.60;;
24034;SDS011;12242;50.952;4.678;2023-04-16T05:55:16;17.65;;;6.70;;
24034;SDS011;12242;50.952;4.678;2023-04-16T05:57:44;18.00;;;6.30;;
24034;SDS011;12242;50.952;4.678;2023-04-16T06:00:12;16.33;;;6.57;;
24034;SDS011;12242;50.952;4.678;2023-04-16T06:02:39;15.18;;;6.47;;
24034;SDS011;12242;50.952;4.678;2023-04-16T06:05:07;14.55;;;6.57;;
24034;SDS011;12242;50.952;4.678;2023-04-16T06:07:35;17.08;;;6.13;;
24034;SDS011;12242;50.952;4.678;2023-04-16T06:10:02;15.43;;;6.20;;
24034;SDS011;12242;50.952;4.678;2023-04-16T06:12:31;13.85;;;6.05;;
24034;SDS011;12242;50.952;4.678;2023-04-16T06:14:58;16.02;;;6.22;;
24034;SDS011;12242;50.952;4.678;2023-04-16T06:17:26;22.30;;;6.43;;
24034;SDS011;12242;50.952;4.678;2023-04-16T06:19:54;13.50;;;6.28;;
24034;SDS011;12242;50.952;4.678;2023-04-16T06:22:22;14.15;;;5.97;;
24034;SDS011;12242;50.952;4.678;2023-04-16T06:24:50;18.70;;;6.65;;
24034;SDS011;12242;50.952;4.678;2023-04-16T06:27:18;11.05;;;5.65;;
24034;SDS011;12242;50.952;4.678;2023-04-16T06:29:46;12.70;;;6.05;;
24034;SDS011;12242;50.952;4.678;2023-04-16T06:32:13;13.85;;;5.30;;
24034;SDS011;12242;50.952;4.678;2023-04-16T06:34:42;14.57;;;5.82;;
24034;SDS011;12242;50.952;4.678;2023-04-16T06:37:10;15.90;;;6.07;;
24034;SDS011;12242;50.952;4.678;2023-04-16T06:39:38;15.10;;;5.90;;
24034;SDS011;12242;50.952;4.678;2023-04-16T06:42:05;13.63;;;6.60;;
24034;SDS011;12242;50.952;4.678;2023-04-16T06:44:34;14.90;;;5.85;;
24034;SDS011;12242;50.952;4.678;2023-04-16T06:47:01;10.65;;;5.38;;
24034;SDS011;12242;50.952;4.678;2023-04-16T06:49:29;12.20;;;5.90;;
24034;SDS011;12242;50.952;4.678;2023-04-16T06:51:56;16.58;;;6.07;;
24034;SDS011;12242;50.952;4.678;2023-04-16T06:54:24;18.60;;;5.65;;
24034;SDS011;12242;50.952;4.678;2023-04-16T06:56:51;11.48;;;5.15;;
24034;SDS011;12242;50.952;4.678;2023-04-16T06:59:19;15.73;;;5.25;;
24034;SDS011;12242;50.952;4.678;2023-04-16T07:01:46;17.08;;;7.22;;
24034;SDS011;12242;50.952;4.678;2023-04-16T07:04:14;19.55;;;5.88;;
24034;SDS011;12242;50.952;4.678;2023-04-16T07:06:42;18.13;;;6.88;;
24034;SDS011;12242;50.952;4.678;2023-04-16T07:09:10;17.05;;;6.25;;
24034;SDS011;12242;50.952;4.678;2023-04-16T07:11:38;15.63;;;6.15;;
24034;SDS011;12242;50.952;4.678;2023-04-16T07:14:06;15.07;;;6.22;;
24034;SDS011;12242;50.952;4.678;2023-04-16T07:16:34;12.77;;;6.43;;
24034;SDS011;12242;50.952;4.678;2023-04-16T07:19:04;18.80;;;9.63;;
24034;SDS011;12242;50.952;4.678;2023-04-16T07:21:32;16.38;;;6.80;;
24034;SDS011;12242;50.952;4.678;2023-04-16T07:24:00;14.02;;;6.70;;
24034;SDS011;12242;50.952;4.678;2023-04-16T07:26:28;16.27;;;5.88;;
24034;SDS011;12242;50.952;4.678;2023-04-16T07:28:56;13.75;;;6.25;;
24034;SDS011;12242;50.952;4.678;2023-04-16T07:31:23;18.27;;;6.28;;
24034;SDS011;12242;50.952;4.678;2023-04-16T07:33:51;14.68;;;6.00;;
24034;SDS011;12242;50.952;4.678;2023-04-16T07:36:19;14.32;;;5.95;;
24034;SDS011;12242;50.952;4.678;2023-04-16T07:38:46;14.40;;;8.73;;
24034;SDS011;12242;50.952;4.678;2023-04-16T07:41:14;14.38;;;6.57;;
24034;SDS011;12242;50.952;4.678;2023-04-16T07:43:41;14.48;;;5.70;;
24034;SDS011;12242;50.952;4.678;2023-04-16T07:46:09;15.38;;;6.07;;
24034;SDS011;12242;50.952;4.678;2023-04-16T07:48:36;16.98;;;6.47;;
24034;SDS011;12242;50.952;4.678;2023-04-16T07:51:04;18.55;;;7.05;;
24034;SDS011;12242;50.952;4.678;2023-04-16T07:53:32;14.60;;;6.97;;
24034;SDS011;12242;50.952;4.678;2023-04-16T07:55:59;11.55;;;5.43;;
24034;SDS011;12242;50.952;4.678;2023-04-16T07:58:27;14.90;;;5.85;;
24034;SDS011;12242;50.952;4.678;2023-04-16T08:00:54;19.50;;;6.05;;
24034;SDS011;12242;50.952;4.678;2023-04-16T08:03:22;20.00;;;5.45;;
24034;SDS011;12242;50.952;4.678;2023-04-16T08:05:50;17.30;;;6.45;;
24034;SDS011;12242;50.952;4.678;2023-04-16T08:08:18;17.20;;;6.32;;
24034;SDS011;12242;50.952;4.678;2023-04-16T08:10:46;20.40;;;5.85;;
24034;SDS011;12242;50.952;4.678;2023-04-16T08:13:13;21.95;;;6.45;;
24034;SDS011;12242;50.952;4.678;2023-04-16T08:15:41;18.25;;;6.45;;
24034;SDS011;12242;50.952;4.678;2023-04-16T08:18:08;17.08;;;6.50;;
24034;SDS011;12242;50.952;4.678;2023-04-16T08:20:41;14.00;;;6.25;;
24034;SDS011;12242;50.952;4.678;2023-04-16T08:23:09;16.88;;;6.53;;
24034;SDS011;12242;50.952;4.678;2023-04-16T08:25:37;20.63;;;7.07;;
24034;SDS011;12242;50.952;4.678;2023-04-16T08:28:05;21.10;;;7.00;;
24034;SDS011;12242;50.952;4.678;2023-04-16T08:30:32;14.35;;;6.07;;
24034;SDS011;12242;50.952;4.678;2023-04-16T08:33:00;21.38;;;6.47;;
24034;SDS011;12242;50.952;4.678;2023-04-16T08:35:28;19.08;;;7.28;;
24034;SDS011;12242;50.952;4.678;2023-04-16T08:37:55;15.82;;;7.13;;
24034;SDS011;12242;50.952;4.678;2023-04-16T08:40:27;14.63;;;6.80;;
24034;SDS011;12242;50.952;4.678;2023-04-16T08:42:57;19.20;;;7.63;;
24034;SDS011;12242;50.952;4.678;2023-04-16T08:45:26;19.75;;;7.85;;
24034;SDS011;12242;50.952;4.678;2023-04-16T08:47:53;20.10;;;7.28;;
24034;SDS011;12242;50.952;4.678;2023-04-16T08:50:22;21.65;;;7.07;;
24034;SDS011;12242;50.952;4.678;2023-04-16T08:55:34;22.02;;;7.15;;
24034;SDS011;12242;50.952;4.678;2023-04-16T08:58:13;23.52;;;8.63;;
24034;SDS011;12242;50.952;4.678;2023-04-16T09:00:40;18.38;;;7.70;;
24034;SDS011;12242;50.952;4.678;2023-04-16T09:03:08;22.83;;;9.88;;
24034;SDS011;12242;50.952;4.678;2023-04-16T09:05:37;21.80;;;7.80;;
24034;SDS011;12242;50.952;4.678;2023-04-16T09:08:05;19.85;;;7.47;;
24034;SDS011;12242;50.952;4.678;2023-04-16T09:10:33;24.67;;;8.80;;
24034;SDS011;12242;50.952;4.678;2023-04-16T09:13:01;19.20;;;8.52;;
24034;SDS011;12242;50.952;4.678;2023-04-16T09:15:28;20.90;;;8.13;;
24034;SDS011;12242;50.952;4.678;2023-04-16T09:17:58;20.42;;;8.48;;
24034;SDS011;12242;50.952;4.678;2023-04-16T09:20:25;23.63;;;8.60;;
24034;SDS011;12242;50.952;4.678;2023-04-16T09:22:53;23.80;;;8.68;;
24034;SDS011;12242;50.952;4.678;2023-04-16T09:25:20;23.98;;;7.97;;
24034;SDS011;12242;50.952;4.678;2023-04-16T09:27:48;17.33;;;7.45;;
24034;SDS011;12242;50.952;4.678;2023-04-16T09:30:20;27.38;;;9.25;;
24034;SDS011;12242;50.952;4.678;2023-04-16T09:32:49;21.48;;;8.60;;
24034;SDS011;12242;50.952;4.678;2023-04-16T09:35:18;18.88;;;8.82;;
24034;SDS011;12242;50.952;4.678;2023-04-16T09:37:55;26.33;;;9.13;;
24034;SDS011;12242;50.952;4.678;2023-04-16T09:40:24;32.70;;;9.80;;
24034;SDS011;12242;50.952;4.678;2023-04-16T09:42:55;28.83;;;9.18;;
24034;SDS011;12242;50.952;4.678;2023-04-16T09:45:23;24.60;;;10.50;;
24034;SDS011;12242;50.952;4.678;2023-04-16T09:47:51;27.65;;;9.93;;
24034;SDS011;12242;50.952;4.678;2023-04-16T09:50:18;26.13;;;8.75;;
24034;SDS011;12242;50.952;4.678;2023-04-16T09:52:49;26.92;;;9.75;;
24034;SDS011;12242;50.952;4.678;2023-04-16T09:55:25;26.10;;;9.65;;
24034;SDS011;12242;50.952;4.678;2023-04-16T09:57:59;26.08;;;8.57;;
24034;SDS011;12242;50.952;4.678;2023-04-16T10:00:28;27.05;;;9.18;;
24034;SDS011;12242;50.952;4.678;2023-04-16T10:03:03;23.55;;;8.82;;
24034;SDS011;12242;50.952;4.678;2023-04-16T10:05:32;23.40;;;9.68;;
24034;SDS011;12242;50.952;4.678;2023-04-16T10:08:00;25.58;;;9.63;;
24034;SDS011;12242;50.952;4.678;2023-04-16T10:10:28;22.73;;;7.82;;
24034;SDS011;12242;50.952;4.678;2023-04-16T10:12:56;27.95;;;9.18;;
24034;SDS011;12242;50.952;4.678;2023-04-16T10:15:24;26.80;;;8.85;;
24034;SDS011;12242;50.952;4.678;2023-04-16T10:17:52;24.92;;;8.88;;
24034;SDS011;12242;50.952;4.678;2023-04-16T10:20:20;26.48;;;8.75;;
24034;SDS011;12242;50.952;4.678;2023-04-16T10:22:49;22.10;;;8.38;;
24034;SDS011;12242;50.952;4.678;2023-04-16T10:25:17;21.33;;;9.05;;
24034;SDS011;12242;50.952;4.678;2023-04-16T10:27:45;23.75;;;8.20;;
24034;SDS011;12242;50.952;4.678;2023-04-16T10:30:14;24.83;;;8.27;;
24034;SDS011;12242;50.952;4.678;2023-04-16T10:32:42;26.92;;;8.82;;
24034;SDS011;12242;50.952;4.678;2023-04-16T10:35:13;16.25;;;8.25;;
24034;SDS011;12242;50.952;4.678;2023-04-16T10:37:44;22.98;;;8.02;;
24034;SDS011;12242;50.952;4.678;2023-04-16T10:42:54;18.40;;;8.07;;
24034;SDS011;12242;50.952;4.678;2023-04-16T10:45:30;26.40;;;7.97;;
24034;SDS011;12242;50.952;4.678;2023-04-16T10:48:03;24.75;;;8.43;;
24034;SDS011;12242;50.952;4.678;2023-04-16T10:50:35;24.70;;;8.90;;
24034;SDS011;12242;50.952;4.678;2023-04-16T10:58:38;22.75;;;8.15;;
24034;SDS011;12242;50.952;4.678;2023-04-16T11:01:07;19.08;;;8.25;;
24034;SDS011;12242;50.952;4.678;2023-04-16T11:03:43;27.15;;;9.52;;
24034;SDS011;12242;50.952;4.678;2023-04-16T11:06:15;23.73;;;8.48;;
24034;SDS011;12242;50.952;4.678;2023-04-16T11:08:44;21.75;;;8.05;;
24034;SDS011;12242;50.952;4.678;2023-04-16T11:11:15;20.88;;;8.40;;
24034;SDS011;12242;50.952;4.678;2023-04-16T11:13:44;24.40;;;8.35;;
24034;SDS011;12242;50.952;4.678;2023-04-16T11:16:12;14.88;;;7.57;;
24034;SDS011;12242;50.952;4.678;2023-04-16T11:18:40;22.90;;;8.07;;
24034;SDS011;12242;50.952;4.678;2023-04-16T11:21:17;21.73;;;7.97;;
24034;SDS011;12242;50.952;4.678;2023-04-16T11:23:49;20.48;;;8.35;;
24034;SDS011;12242;50.952;4.678;2023-04-16T11:26:27;19.98;;;8.23;;
24034;SDS011;12242;50.952;4.678;2023-04-16T11:28:56;16.73;;;8.68;;
24034;SDS011;12242;50.952;4.678;2023-04-16T11:31:25;22.92;;;9.02;;
24034;SDS011;12242;50.952;4.678;2023-04-16T11:33:54;19.75;;;9.02;;
24034;SDS011;12242;50.952;4.678;2023-04-16T11:36:22;21.30;;;8.77;;
24034;SDS011;12242;50.952;4.678;2023-04-16T11:38:59;19.92;;;8.45;;
24034;SDS011;12242;50.952;4.678;2023-04-16T11:41:28;22.00;;;8.57;;
24034;SDS011;12242;50.952;4.678;2023-04-16T11:43:55;16.17;;;7.90;;
24034;SDS011;12242;50.952;4.678;2023-04-16T11:46:24;21.08;;;8.52;;
24034;SDS011;12242;50.952;4.678;2023-04-16T11:49:04;17.90;;;8.02;;
24034;SDS011;12242;50.952;4.678;2023-04-16T11:51:31;21.80;;;8.23;;
24034;SDS011;12242;50.952;4.678;2023-04-16T11:53:59;24.85;;;9.48;;
24034;SDS011;12242;50.952;4.678;2023-04-16T11:56:27;18.92;;;9.13;;
24034;SDS011;12242;50.952;4.678;2023-04-16T12:01:35;21.15;;;8.93;;
24034;SDS011;12242;50.952;4.678;2023-04-16T12:04:03;20.42;;;8.73;;
24034;SDS011;12242;50.952;4.678;2023-04-16T12:06:34;20.55;;;8.45;;
24034;SDS011;12242;50.952;4.678;2023-04-16T12:11:49;21.02;;;9.20;;
24034;SDS011;12242;50.952;4.678;2023-04-16T12:14:17;23.58;;;9.25;;
24034;SDS011;12242;50.952;4.678;2023-04-16T12:16:45;23.48;;;9.13;;
24034;SDS011;12242;50.952;4.678;2023-04-16T12:19:13;21.20;;;8.63;;
24034;SDS011;12242;50.952;4.678;2023-04-16T12:21:41;18.95;;;8.68;;
24034;SDS011;12242;50.952;4.678;2023-04-16T12:24:11;19.90;;;9.05;;
24034;SDS011;12242;50.952;4.678;2023-04-16T12:26:46;23.90;;;10.18;;
24034;SDS011;12242;50.952;4.678;2023-04-16T12:29:18;25.85;;;10.15;;
24034;SDS011;12242;50.952;4.678;2023-04-16T12:31:51;26.55;;;10.60;;
24034;SDS011;12242;50.952;4.678;2023-04-16T12:34:20;20.75;;;9.40;;
24034;SDS011;12242;50.952;4.678;2023-04-16T12:37:08;24.27;;;10.02;;
24034;SDS011;12242;50.952;4.678;2023-04-16T12:39:36;21.30;;;9.15;;
24034;SDS011;12242;50.952;4.678;2023-04-16T12:42:04;24.83;;;9.68;;
24034;SDS011;12242;50.952;4.678;2023-04-16T12:44:35;21.77;;;8.20;;
24034;SDS011;12242;50.952;4.678;2023-04-16T12:47:03;23.27;;;9.23;;
24034;SDS011;12242;50.952;4.678;2023-04-16T12:49:31;20.55;;;9.25;;
24034;SDS011;12242;50.952;4.678;2023-04-16T12:51:58;24.67;;;10.40;;
24034;SDS011;12242;50.952;4.678;2023-04-16T12:54:26;20.70;;;9.68;;
24034;SDS011;12242;50.952;4.678;2023-04-16T12:56:57;22.83;;;9.63;;
24034;SDS011;12242;50.952;4.678;2023-04-16T12:59:24;21.15;;;9.63;;
24034;SDS011;12242;50.952;4.678;2023-04-16T13:01:52;29.42;;;9.80;;
24034;SDS011;12242;50.952;4.678;2023-04-16T13:04:19;17.10;;;8.65;;
24034;SDS011;12242;50.952;4.678;2023-04-16T13:06:51;20.10;;;8.95;;
24034;SDS011;12242;50.952;4.678;2023-04-16T13:09:18;22.65;;;9.23;;
24034;SDS011;12242;50.952;4.678;2023-04-16T13:11:46;30.60;;;11.70;;
24034;SDS011;12242;50.952;4.678;2023-04-16T13:14:13;26.45;;;9.18;;
24034;SDS011;12242;50.952;4.678;2023-04-16T13:16:41;26.27;;;9.63;;
24034;SDS011;12242;50.952;4.678;2023-04-16T13:19:08;26.50;;;10.00;;
24034;SDS011;12242;50.952;4.678;2023-04-16T13:21:36;22.15;;;9.23;;
24034;SDS011;12242;50.952;4.678;2023-04-16T13:24:04;20.50;;;9.95;;
24034;SDS011;12242;50.952;4.678;2023-04-16T13:26:31;22.08;;;9.43;;
24034;SDS011;12242;50.952;4.678;2023-04-16T13:28:59;20.83;;;9.85;;
24034;SDS011;12242;50.952;4.678;2023-04-16T13:31:27;27.58;;;10.80;;
24034;SDS011;12242;50.952;4.678;2023-04-16T13:33:54;19.08;;;8.70;;
24034;SDS011;12242;50.952;4.678;2023-04-16T13:36:22;21.25;;;8.98;;
24034;SDS011;12242;50.952;4.678;2023-04-16T13:38:53;21.70;;;9.27;;
24034;SDS011;12242;50.952;4.678;2023-04-16T13:41:20;19.30;;;9.50;;
24034;SDS011;12242;50.952;4.678;2023-04-16T13:43:48;22.05;;;9.13;;
24034;SDS011;12242;50.952;4.678;2023-04-16T13:46:15;24.13;;;9.05;;
24034;SDS011;12242;50.952;4.678;2023-04-16T13:48:43;23.70;;;9.13;;
24034;SDS011;12242;50.952;4.678;2023-04-16T13:51:11;19.58;;;8.93;;
24034;SDS011;12242;50.952;4.678;2023-04-16T13:53:41;20.08;;;9.30;;
24034;SDS011;12242;50.952;4.678;2023-04-16T13:56:08;21.63;;;8.27;;
24034;SDS011;12242;50.952;4.678;2023-04-16T13:58:37;18.38;;;8.25;;
24034;SDS011;12242;50.952;4.678;2023-04-16T14:01:06;23.42;;;9.65;;
24034;SDS011;12242;50.952;4.678;2023-04-16T14:03:34;22.35;;;8.30;;
24034;SDS011;12242;50.952;4.678;2023-04-16T14:06:03;25.02;;;10.00;;
24034;SDS011;12242;50.952;4.678;2023-04-16T14:08:31;24.38;;;9.77;;
24034;SDS011;12242;50.952;4.678;2023-04-16T14:10:58;24.20;;;10.10;;
24034;SDS011;12242;50.952;4.678;2023-04-16T14:13:27;22.77;;;10.00;;
24034;SDS011;12242;50.952;4.678;2023-04-16T14:15:54;23.08;;;10.18;;
24034;SDS011;12242;50.952;4.678;2023-04-16T14:18:22;23.02;;;10.13;;
24034;SDS011;12242;50.952;4.678;2023-04-16T14:20:49;26.92;;;10.02;;
24034;SDS011;12242;50.952;4.678;2023-04-16T14:23:17;24.77;;;9.88;;
24034;SDS011;12242;50.952;4.678;2023-04-16T14:25:44;20.45;;;9.73;;
24034;SDS011;12242;50.952;4.678;2023-04-16T14:28:12;22.85;;;9.80;;
24034;SDS011;12242;50.952;4.678;2023-04-16T14:30:41;25.30;;;10.07;;
24034;SDS011;12242;50.952;4.678;2023-04-16T14:33:09;23.13;;;10.30;;
24034;SDS011;12242;50.952;4.678;2023-04-16T14:35:36;19.75;;;10.05;;
24034;SDS011;12242;50.952;4.678;2023-04-16T14:38:04;23.55;;;11.23;;
24034;SDS011;12242;50.952;4.678;2023-04-16T14:40:31;24.10;;;10.27;;
24034;SDS011;12242;50.952;4.678;2023-04-16T14:43:00;21.60;;;10.60;;
24034;SDS011;12242;50.952;4.678;2023-04-16T14:45:27;21.70;;;10.38;;
24034;SDS011;12242;50.952;4.678;2023-04-16T14:47:56;23.15;;;9.90;;
24034;SDS011;12242;50.952;4.678;2023-04-16T14:50:24;20.63;;;9.70;;
24034;SDS011;12242;50.952;4.678;2023-04-16T14:52:51;20.50;;;9.75;;
24034;SDS011;12242;50.952;4.678;2023-04-16T14:55:20;24.75;;;9.95;;
24034;SDS011;12242;50.952;4.678;2023-04-16T14:57:47;22.92;;;9.88;;
24034;SDS011;12242;50.952;4.678;2023-04-16T15:00:15;22.02;;;9.50;;